createdAt,value
2022-09-23T00:01:09.212Z,3.08
2022-09-23T00:03:37.417Z,3.04
2022-09-23T00:06:10.767Z,2.91
2022-09-23T00:08:37.770Z,2.93
2022-09-23T00:11:10.190Z,2.99
2022-09-23T00:13:37.697Z,2.93
2022-09-23T00:16:10.421Z,2.90
2022-09-23T00:18:37.228Z,2.86
2022-09-23T00:21:09.961Z,2.86
2022-09-23T00:23:37.240Z,2.85
2022-09-23T00:26:05.859Z,2.85
2022-09-23T00:28:33.151Z,2.76
2022-09-23T00:31:08.065Z,2.74
2022-09-23T00:33:34.803Z,2.69
2022-09-23T00:36:03.547Z,2.69
2022-09-23T00:38:30.498Z,2.64
2022-09-23T00:40:58.335Z,2.60
2022-09-23T00:43:46.816Z,2.65
2022-09-23T00:46:40.522Z,2.59
2022-09-23T00:49:14.049Z,2.51
2022-09-23T00:51:46.728Z,2.51
2022-09-23T00:54:13.465Z,2.49
2022-09-23T00:56:40.484Z,2.47
2022-09-23T00:59:09.765Z,2.51
2022-09-23T01:01:38.169Z,2.43
2022-09-23T01:04:06.346Z,2.38
2022-09-23T01:06:32.965Z,2.41
2022-09-23T01:08:59.683Z,2.43
2022-09-23T01:11:47.776Z,2.40
2022-09-23T01:14:37.637Z,2.39
2022-09-23T01:17:09.821Z,2.36
2022-09-23T01:19:36.278Z,2.34
2022-09-23T01:22:54.139Z,2.26
2022-09-23T01:26:01.888Z,2.29
2022-09-23T01:28:33.294Z,2.29
2022-09-23T01:31:10.235Z,2.22
2022-09-23T01:33:56.104Z,2.22
2022-09-23T01:36:51.359Z,2.18
2022-09-23T01:39:58.139Z,2.11
2022-09-23T01:42:33.828Z,2.16
2022-09-23T01:45:21.519Z,2.19
2022-09-23T01:47:55.377Z,2.07
2022-09-23T01:50:44.916Z,2.09
2022-09-23T01:53:33.026Z,2.09
2022-09-23T01:56:03.958Z,2.03
2022-09-23T01:58:39.254Z,2.03
2022-09-23T02:01:07.411Z,2.01
2022-09-23T02:03:40.030Z,2.05
2022-09-23T02:06:11.088Z,2.00
2022-09-23T02:08:43.255Z,1.98
2022-09-23T02:11:15.556Z,2.00
2022-09-23T02:14:09.085Z,1.94
2022-09-23T02:16:45.537Z,1.95
2022-09-23T02:19:27.153Z,1.92
2022-09-23T02:21:59.511Z,1.93
2022-09-23T02:24:31.160Z,1.90
2022-09-23T02:27:13.342Z,1.84
2022-09-23T02:29:50.091Z,1.83
2022-09-23T02:32:53.407Z,1.81
2022-09-23T02:35:33.176Z,1.83
2022-09-23T02:38:22.601Z,1.81
2022-09-23T02:41:11.319Z,1.81
2022-09-23T02:43:54.564Z,1.81
2022-09-23T02:46:21.881Z,1.81
2022-09-23T02:48:56.847Z,1.77
2022-09-23T02:51:27.993Z,1.74
2022-09-23T02:53:58.508Z,1.82
2022-09-23T02:56:25.168Z,1.74
2022-09-23T02:58:53.863Z,1.79
2022-09-23T03:01:47.678Z,1.75
2022-09-23T03:04:31.606Z,1.74
2022-09-23T03:07:21.238Z,1.67
2022-09-23T03:10:02.604Z,1.70
2022-09-23T03:12:42.220Z,1.67
2022-09-23T03:15:21.448Z,1.63
2022-09-23T03:17:56.767Z,1.65
2022-09-23T03:20:32.267Z,1.65
2022-09-23T03:23:01.861Z,1.64
2022-09-23T03:25:31.636Z,1.60
2022-09-23T03:28:00.888Z,1.61
2022-09-23T03:30:28.486Z,1.61
2022-09-23T03:32:56.023Z,1.58
2022-09-23T03:35:24.793Z,1.60
2022-09-23T03:38:03.538Z,1.59
2022-09-23T03:40:33.497Z,1.60
2022-09-23T03:43:01.468Z,1.55
2022-09-23T03:45:32.432Z,1.54
2022-09-23T03:47:59.210Z,1.54
2022-09-23T03:50:25.909Z,1.55
2022-09-23T03:52:52.694Z,1.47
2022-09-23T03:55:20.328Z,1.51
2022-09-23T03:57:47.232Z,1.44
2022-09-23T04:00:14.732Z,1.48
2022-09-23T04:02:41.767Z,1.42
2022-09-23T04:05:09.376Z,1.44
2022-09-23T04:07:36.075Z,1.44
2022-09-23T04:10:02.784Z,1.45
2022-09-23T04:12:29.391Z,1.40
2022-09-23T04:14:56.019Z,1.41
2022-09-23T04:17:22.700Z,1.41
2022-09-23T04:19:49.293Z,1.40
2022-09-23T04:22:15.876Z,1.40
2022-09-23T04:24:42.558Z,1.43
2022-09-23T04:27:09.163Z,1.47
2022-09-23T04:29:35.772Z,1.44
2022-09-23T04:32:02.637Z,1.35
2022-09-23T04:34:29.545Z,1.35
2022-09-23T04:36:56.112Z,1.36
2022-09-23T04:39:22.715Z,1.32
2022-09-23T04:41:49.313Z,1.32
2022-09-23T04:44:15.979Z,1.28
2022-09-23T04:46:43.903Z,1.29
2022-09-23T04:49:10.787Z,1.39
2022-09-23T04:51:37.560Z,1.32
2022-09-23T04:54:04.346Z,1.28
2022-09-23T04:56:33.734Z,1.34
2022-09-23T04:59:01.765Z,1.35
2022-09-23T05:01:30.878Z,1.38
2022-09-23T05:04:01.930Z,1.42
2022-09-23T05:06:29.761Z,1.39
2022-09-23T05:08:57.874Z,1.40
2022-09-23T05:11:25.338Z,1.37
2022-09-23T05:13:53.641Z,1.44
2022-09-23T05:16:21.277Z,1.38
2022-09-23T05:18:48.971Z,1.48
2022-09-23T05:21:18.497Z,1.45
2022-09-23T05:23:58.829Z,1.42
2022-09-23T05:26:27.552Z,1.42
2022-09-23T05:28:54.557Z,1.44
2022-09-23T05:31:24.030Z,1.43
2022-09-23T05:33:52.924Z,1.43
2022-09-23T05:36:23.371Z,1.48
2022-09-23T05:38:50.903Z,1.48
2022-09-23T05:41:19.197Z,1.61
2022-09-23T05:43:45.912Z,1.71
2022-09-23T05:46:12.484Z,1.64
2022-09-23T05:48:40.130Z,1.65
2022-09-23T05:51:14.267Z,1.67
2022-09-23T05:53:44.836Z,1.72
2022-09-23T05:56:16.561Z,1.76
2022-09-23T05:58:43.314Z,1.82
2022-09-23T06:01:11.721Z,1.84
2022-09-23T06:03:38.438Z,1.79
2022-09-23T06:06:05.440Z,1.96
2022-09-23T06:08:34.305Z,1.98
2022-09-23T06:11:07.139Z,1.94
2022-09-23T06:13:40.081Z,2.03
2022-09-23T06:16:16.211Z,2.05
2022-09-23T06:18:44.771Z,2.06
2022-09-23T06:21:14.187Z,2.05
2022-09-23T06:23:42.041Z,2.12
2022-09-23T06:26:11.056Z,2.20
2022-09-23T06:28:39.274Z,2.33
2022-09-23T06:31:14.050Z,2.38
2022-09-23T06:33:45.003Z,2.45
2022-09-23T06:36:33.432Z,2.59
2022-09-23T06:39:02.598Z,2.70
2022-09-23T06:41:29.698Z,2.71
2022-09-23T06:43:56.291Z,2.73
2022-09-23T06:46:22.916Z,2.83
2022-09-23T06:48:51.032Z,2.93
2022-09-23T06:51:21.729Z,3.15
2022-09-23T06:53:49.449Z,3.48
2022-09-23T06:56:17.338Z,3.94
2022-09-23T06:58:43.914Z,4.49
2022-09-23T07:01:12.960Z,4.83
2022-09-23T07:03:39.661Z,4.99
2022-09-23T07:06:06.971Z,5.16
2022-09-23T07:08:34.165Z,5.43
2022-09-23T07:11:03.350Z,5.52
2022-09-23T07:13:30.607Z,5.64
2022-09-23T07:16:01.989Z,5.93
2022-09-23T07:18:36.230Z,6.15
2022-09-23T07:21:15.057Z,6.35
2022-09-23T07:23:42.803Z,6.33
2022-09-23T07:26:09.484Z,6.54
2022-09-23T07:28:37.052Z,6.69
2022-09-23T07:31:09.800Z,6.83
2022-09-23T07:33:38.151Z,6.98
2022-09-23T07:36:07.485Z,7.10
2022-09-23T07:38:34.966Z,7.27
2022-09-23T07:41:07.563Z,7.52
2022-09-23T07:43:34.822Z,7.62
2022-09-23T07:46:03.135Z,7.76
2022-09-23T07:48:34.353Z,7.88
2022-09-23T07:51:07.091Z,8.03
2022-09-23T07:53:33.757Z,8.18
2022-09-23T07:56:00.489Z,8.37
2022-09-23T07:58:27.106Z,8.66
2022-09-23T08:00:54.185Z,8.86
2022-09-23T08:03:21.273Z,9.13
2022-09-23T08:05:48.180Z,9.41
2022-09-23T08:08:14.926Z,9.67
2022-09-23T08:10:41.556Z,9.72
2022-09-23T08:13:08.147Z,9.80
2022-09-23T08:15:34.889Z,9.91
2022-09-23T08:18:01.864Z,10.24
2022-09-23T08:20:47.840Z,10.26
2022-09-23T08:23:16.160Z,10.40
2022-09-23T08:25:46.828Z,10.63
2022-09-23T08:28:18.697Z,10.70
2022-09-23T08:30:48.202Z,10.93
2022-09-23T08:33:17.469Z,10.94
2022-09-23T08:35:46.376Z,11.08
2022-09-23T08:38:12.954Z,11.24
2022-09-23T08:40:42.632Z,11.38
2022-09-23T08:43:19.517Z,11.49
2022-09-23T08:45:46.399Z,11.72
2022-09-23T08:48:15.993Z,11.90
2022-09-23T08:50:46.001Z,11.96
2022-09-23T08:53:27.432Z,12.36
2022-09-23T08:55:56.086Z,12.35
2022-09-23T08:59:00.366Z,12.66
2022-09-23T09:01:29.905Z,12.87
2022-09-23T09:03:59.257Z,12.99
2022-09-23T09:06:41.902Z,13.10
2022-09-23T09:09:23.796Z,13.42
2022-09-23T09:11:54.866Z,13.77
2022-09-23T09:14:51.908Z,13.95
2022-09-23T09:17:59.322Z,14.23
2022-09-23T09:20:51.721Z,14.29
2022-09-23T09:23:43.832Z,14.62
2022-09-23T09:26:16.705Z,14.87
2022-09-23T09:28:47.610Z,15.05
2022-09-23T09:31:26.472Z,15.24
2022-09-23T09:33:58.035Z,15.35
2022-09-23T09:36:43.387Z,15.59
2022-09-23T09:39:12.927Z,15.51
2022-09-23T09:41:41.947Z,15.51
2022-09-23T09:44:21.098Z,15.62
2022-09-23T09:47:07.537Z,15.77
2022-09-23T09:50:00.777Z,15.86
2022-09-23T09:52:31.818Z,16.02
2022-09-23T09:55:13.514Z,16.07
2022-09-23T09:57:45.215Z,16.20
2022-09-23T10:00:18.918Z,16.09
2022-09-23T10:02:46.794Z,16.19
2022-09-23T10:05:35.230Z,16.18
2022-09-23T10:08:35.221Z,16.29
2022-09-23T10:11:03.130Z,16.40
2022-09-23T10:13:30.452Z,16.53
2022-09-23T10:15:58.505Z,16.81
2022-09-23T10:18:56.968Z,16.53
2022-09-23T10:21:27.920Z,16.71
2022-09-23T10:23:58.197Z,16.77
2022-09-23T10:26:42.289Z,16.48
2022-09-23T10:29:30.416Z,16.36
2022-09-23T10:32:19.806Z,16.56
2022-09-23T10:34:51.910Z,16.70
2022-09-23T10:37:30.629Z,16.92
2022-09-23T10:40:16.796Z,16.86
2022-09-23T10:43:16.549Z,16.78
2022-09-23T10:46:07.337Z,17.01
2022-09-23T10:48:49.087Z,16.90
2022-09-23T10:51:38.715Z,16.81
2022-09-23T10:54:24.233Z,16.84
2022-09-23T10:57:04.466Z,16.94
2022-09-23T10:59:49.851Z,16.97
2022-09-23T11:02:31.281Z,16.99
2022-09-23T11:05:06.689Z,17.04
2022-09-23T11:08:00.074Z,17.09
2022-09-23T11:10:46.863Z,17.06
2022-09-23T11:13:28.897Z,17.00
2022-09-23T11:16:17.981Z,16.96
2022-09-23T11:19:21.620Z,16.97
2022-09-23T11:22:01.056Z,16.88
2022-09-23T11:24:49.476Z,17.04
2022-09-23T11:27:35.320Z,17.11
2022-09-23T11:30:13.476Z,17.17
2022-09-23T11:32:54.755Z,17.22
2022-09-23T11:35:28.101Z,17.17
2022-09-23T11:38:07.111Z,16.92
2022-09-23T11:40:37.527Z,16.48
2022-09-23T11:43:15.821Z,16.71
2022-09-23T11:45:55.200Z,16.94
2022-09-23T11:48:27.567Z,17.24
2022-09-23T11:51:01.587Z,17.30
2022-09-23T11:53:42.382Z,17.20
2022-09-23T11:56:36.314Z,17.31
2022-09-23T11:59:41.236Z,17.39
2022-09-23T12:02:29.618Z,17.54
2022-09-23T12:05:02.854Z,17.71
2022-09-23T12:07:46.969Z,17.80
2022-09-23T12:10:14.447Z,17.77
2022-09-23T12:13:08.284Z,17.63
2022-09-23T12:15:53.591Z,17.51
2022-09-23T12:18:37.148Z,17.52
2022-09-23T12:21:46.307Z,17.49
2022-09-23T12:24:50.316Z,17.33
2022-09-23T12:27:36.650Z,17.31
2022-09-23T12:30:20.820Z,17.51
2022-09-23T12:32:47.467Z,17.52
2022-09-23T12:35:23.287Z,17.69
2022-09-23T12:37:51.869Z,17.62
2022-09-23T12:40:31.234Z,17.47
2022-09-23T12:43:01.395Z,17.54
2022-09-23T12:45:31.415Z,17.44
2022-09-23T12:48:16.538Z,17.50
2022-09-23T12:50:47.543Z,17.53
2022-09-23T12:53:33.111Z,17.48
2022-09-23T12:56:01.446Z,17.47
2022-09-23T12:58:37.962Z,17.57
2022-09-23T13:01:20.592Z,17.50
2022-09-23T13:04:24.106Z,17.31
2022-09-23T13:07:08.529Z,17.62
2022-09-23T13:09:42.109Z,17.69
2022-09-23T13:12:19.826Z,17.73
2022-09-23T13:14:49.135Z,17.67
2022-09-23T13:17:30.740Z,17.70
2022-09-23T13:20:00.135Z,17.79
2022-09-23T13:23:07.462Z,18.01
2022-09-23T13:25:39.541Z,17.93
2022-09-23T13:28:17.787Z,17.81
2022-09-23T13:30:50.322Z,17.86
2022-09-23T13:33:27.631Z,17.85
2022-09-23T13:35:58.727Z,17.56
2022-09-23T13:38:29.665Z,17.32
2022-09-23T13:41:10.342Z,17.25
2022-09-23T13:43:42.773Z,17.20
2022-09-23T13:46:13.349Z,17.17
2022-09-23T13:48:41.337Z,17.05
2022-09-23T13:51:23.149Z,17.04
2022-09-23T13:53:55.251Z,16.91
2022-09-23T13:56:23.097Z,16.98
2022-09-23T13:58:49.742Z,16.85
2022-09-23T14:01:24.140Z,16.83
2022-09-23T14:03:51.397Z,16.85
2022-09-23T14:06:18.482Z,16.79
2022-09-23T14:08:49.873Z,16.69
2022-09-23T14:11:31.978Z,16.67
2022-09-23T14:14:00.833Z,16.65
2022-09-23T14:16:28.110Z,16.63
2022-09-23T14:18:59.572Z,16.68
2022-09-23T14:21:35.577Z,16.70
2022-09-23T14:24:25.266Z,16.63
2022-09-23T14:26:57.675Z,16.71
2022-09-23T14:29:33.767Z,16.81
2022-09-23T14:32:11.296Z,16.76
2022-09-23T14:34:43.933Z,16.79
2022-09-23T14:37:52.339Z,16.85
2022-09-23T14:40:29.860Z,16.67
2022-09-23T14:43:02.793Z,16.83
2022-09-23T14:45:39.787Z,16.88
2022-09-23T14:48:15.106Z,16.99
2022-09-23T14:50:48.443Z,16.82
2022-09-23T14:53:24.130Z,16.98
2022-09-23T14:55:52.850Z,16.87
2022-09-23T14:58:28.563Z,16.99
2022-09-23T15:00:57.917Z,16.76
2022-09-23T15:03:24.687Z,16.67
2022-09-23T15:05:57.929Z,16.51
2022-09-23T15:08:27.256Z,16.35
2022-09-23T15:10:54.303Z,16.19
2022-09-23T15:13:28.095Z,16.03
2022-09-23T15:15:55.856Z,15.99
2022-09-23T15:18:28.016Z,15.94
2022-09-23T15:20:57.457Z,15.70
2022-09-23T15:23:36.489Z,15.46
2022-09-23T15:26:12.262Z,15.35
2022-09-23T15:28:38.934Z,15.36
2022-09-23T15:31:10.029Z,15.37
2022-09-23T15:33:36.664Z,15.20
2022-09-23T15:36:03.454Z,14.97
2022-09-23T15:38:30.078Z,14.85
2022-09-23T15:40:56.744Z,14.68
2022-09-23T15:43:26.517Z,14.66
2022-09-23T15:45:58.833Z,14.57
2022-09-23T15:48:28.275Z,14.53
2022-09-23T15:50:55.431Z,14.37
2022-09-23T15:53:25.788Z,14.32
2022-09-23T15:55:53.271Z,14.23
2022-09-23T15:58:20.780Z,14.13
2022-09-23T16:00:55.898Z,14.02
2022-09-23T16:03:25.798Z,14.12
2022-09-23T16:05:52.450Z,14.02
2022-09-23T16:08:24.440Z,13.90
2022-09-23T16:10:51.228Z,13.79
2022-09-23T16:13:18.061Z,13.67
2022-09-23T16:15:44.876Z,13.53
2022-09-23T16:18:12.380Z,13.52
2022-09-23T16:20:42.314Z,13.37
2022-09-23T16:23:18.479Z,13.27
2022-09-23T16:25:45.105Z,13.25
2022-09-23T16:28:11.724Z,13.25
2022-09-23T16:30:38.343Z,13.15
2022-09-23T16:33:05.049Z,13.11
2022-09-23T16:35:33.547Z,12.94
2022-09-23T16:38:00.465Z,12.76
2022-09-23T16:40:27.427Z,12.56
2022-09-23T16:42:58.347Z,12.57
2022-09-23T16:45:25.061Z,12.54
2022-09-23T16:47:57.996Z,12.45
2022-09-23T16:50:24.614Z,12.44
2022-09-23T16:52:57.118Z,12.47
2022-09-23T16:55:25.695Z,12.48
2022-09-23T16:57:54.021Z,12.33
2022-09-23T17:00:40.464Z,12.26
2022-09-23T17:03:27.705Z,12.22
2022-09-23T17:05:54.668Z,12.19
2022-09-23T17:08:21.277Z,12.14
2022-09-23T17:10:55.793Z,12.10
2022-09-23T17:13:22.665Z,12.00
2022-09-23T17:15:49.767Z,11.93
2022-09-23T17:18:19.450Z,11.81
2022-09-23T17:21:00.252Z,11.85
2022-09-23T17:23:27.367Z,11.74
2022-09-23T17:25:54.482Z,11.58
2022-09-23T17:28:22.591Z,11.54
2022-09-23T17:30:58.075Z,11.51
2022-09-23T17:33:26.359Z,11.44
2022-09-23T17:35:53.310Z,11.37
2022-09-23T17:38:20.272Z,11.36
2022-09-23T17:40:51.511Z,11.34
2022-09-23T17:43:24.734Z,11.19
2022-09-23T17:45:52.527Z,11.11
2022-09-23T17:48:19.685Z,11.03
2022-09-23T17:50:57.077Z,10.97
2022-09-23T17:53:24.406Z,10.91
2022-09-23T17:56:05.449Z,10.89
2022-09-23T17:58:34.727Z,10.84
2022-09-23T18:01:01.837Z,10.79
2022-09-23T18:03:30.044Z,10.72
2022-09-23T18:06:27.290Z,10.66
2022-09-23T18:08:54.849Z,10.65
2022-09-23T18:11:27.063Z,10.58
2022-09-23T18:13:56.192Z,10.48
2022-09-23T18:16:25.037Z,10.42
2022-09-23T18:18:59.687Z,10.39
2022-09-23T18:21:28.599Z,10.32
2022-09-23T18:23:59.791Z,10.34
2022-09-23T18:26:33.977Z,10.36
2022-09-23T18:29:01.476Z,10.32
2022-09-23T18:31:29.275Z,10.29
2022-09-23T18:33:56.134Z,10.32
2022-09-23T18:36:23.884Z,10.26
2022-09-23T18:38:53.489Z,10.20
2022-09-23T18:41:20.600Z,10.24
2022-09-23T18:43:48.742Z,10.25
2022-09-23T18:46:16.435Z,10.23
2022-09-23T18:49:02.286Z,10.23
2022-09-23T18:51:29.842Z,10.24
2022-09-23T18:53:59.923Z,10.12
2022-09-23T18:56:29.607Z,10.08
2022-09-23T18:58:56.587Z,10.05
2022-09-23T19:01:24.266Z,10.05
2022-09-23T19:03:55.680Z,10.02
2022-09-23T19:06:22.425Z,10.11
2022-09-23T19:08:53.427Z,10.03
2022-09-23T19:11:21.254Z,9.96
2022-09-23T19:13:54.443Z,9.90
2022-09-23T19:16:24.554Z,9.78
2022-09-23T19:18:51.281Z,9.76
2022-09-23T19:21:20.880Z,9.75
2022-09-23T19:23:59.076Z,9.69
2022-09-23T19:26:27.484Z,9.62
2022-09-23T19:28:56.323Z,9.57
2022-09-23T19:31:29.325Z,9.48
2022-09-23T19:33:58.144Z,9.49
2022-09-23T19:36:35.326Z,9.48
2022-09-23T19:39:07.208Z,9.44
2022-09-23T19:41:35.454Z,9.41
2022-09-23T19:44:03.371Z,9.31
2022-09-23T19:46:31.188Z,9.31
2022-09-23T19:48:58.663Z,9.31
2022-09-23T19:51:25.764Z,9.36
2022-09-23T19:53:53.039Z,9.28
2022-09-23T19:56:20.037Z,9.20
2022-09-23T19:58:48.587Z,9.14
2022-09-23T20:01:16.376Z,9.11
2022-09-23T20:03:44.791Z,9.07
2022-09-23T20:06:11.559Z,9.04
2022-09-23T20:08:38.630Z,9.03
2022-09-23T20:11:28.716Z,8.95
2022-09-23T20:14:02.174Z,8.86
2022-09-23T20:16:32.311Z,8.76
2022-09-23T20:19:00.274Z,8.79
2022-09-23T20:21:28.394Z,8.77
2022-09-23T20:23:55.576Z,8.79
2022-09-23T20:26:40.655Z,8.71
2022-09-23T20:29:08.925Z,8.77
2022-09-23T20:31:35.784Z,8.71
2022-09-23T20:34:05.612Z,8.63
2022-09-23T20:36:33.341Z,8.58
2022-09-23T20:39:01.627Z,8.57
2022-09-23T20:41:34.738Z,8.62
2022-09-23T20:44:08.606Z,8.59
2022-09-23T20:46:36.570Z,8.68
2022-09-23T20:49:04.076Z,8.60
2022-09-23T20:51:33.362Z,8.68
2022-09-23T20:54:00.678Z,8.68
2022-09-23T20:56:28.535Z,8.69
2022-09-23T20:59:01.959Z,8.67
2022-09-23T21:01:28.618Z,8.58
2022-09-23T21:03:56.014Z,8.55
2022-09-23T21:06:26.158Z,8.54
2022-09-23T21:08:53.740Z,8.48
2022-09-23T21:11:20.753Z,8.54
2022-09-23T21:13:49.752Z,8.49
2022-09-23T21:16:18.289Z,8.53
2022-09-23T21:18:45.579Z,8.51
2022-09-23T21:21:14.108Z,8.55
2022-09-23T21:23:41.799Z,8.52
2022-09-23T21:26:23.271Z,8.44
2022-09-23T21:28:57.753Z,8.50
2022-09-23T21:31:26.622Z,8.43
2022-09-23T21:34:12.661Z,8.47
2022-09-23T21:36:42.854Z,8.48
2022-09-23T21:39:10.506Z,8.37
2022-09-23T21:41:37.785Z,8.31
2022-09-23T21:44:05.141Z,8.27
2022-09-23T21:46:35.329Z,8.25
2022-09-23T21:49:03.575Z,8.27
2022-09-23T21:51:38.637Z,8.29
2022-09-23T21:54:06.334Z,8.23
2022-09-23T21:56:35.375Z,8.18
2022-09-23T21:59:02.274Z,8.10
2022-09-23T22:01:33.282Z,8.06
2022-09-23T22:04:07.755Z,7.96
2022-09-23T22:06:37.549Z,7.89
2022-09-23T22:09:10.195Z,7.87
2022-09-23T22:11:56.351Z,7.85
2022-09-23T22:14:27.443Z,7.88
2022-09-23T22:16:57.389Z,7.97
2022-09-23T22:19:32.922Z,7.93
2022-09-23T22:22:00.254Z,7.91
2022-09-23T22:24:26.971Z,7.95
2022-09-23T22:26:53.906Z,8.03
2022-09-23T22:29:39.319Z,7.92
2022-09-23T22:32:29.030Z,7.90
2022-09-23T22:34:56.025Z,7.89
2022-09-23T22:37:32.784Z,7.98
2022-09-23T22:39:59.630Z,7.97
2022-09-23T22:42:27.022Z,7.90
2022-09-23T22:44:55.428Z,7.92
2022-09-23T22:47:22.139Z,7.92
2022-09-23T22:49:48.868Z,7.89
2022-09-23T22:52:21.021Z,7.88
2022-09-23T22:54:48.005Z,7.88
2022-09-23T22:57:15.354Z,7.87
2022-09-23T22:59:47.802Z,7.89
2022-09-23T23:02:16.329Z,7.92
2022-09-23T23:04:45.214Z,7.94
2022-09-23T23:07:20.794Z,7.97
2022-09-23T23:09:49.275Z,7.98
2022-09-23T23:12:16.781Z,7.92
2022-09-23T23:14:43.454Z,7.98
2022-09-23T23:17:10.117Z,8.03
2022-09-23T23:19:37.138Z,7.94
2022-09-23T23:22:05.398Z,7.99
2022-09-23T23:24:32.634Z,7.93
2022-09-23T23:26:59.934Z,7.97
2022-09-23T23:29:27.781Z,7.98
2022-09-23T23:31:54.605Z,8.02
2022-09-23T23:34:21.841Z,8.03
2022-09-23T23:36:54.565Z,8.00
2022-09-23T23:39:26.529Z,8.03
2022-09-23T23:41:55.122Z,8.00
2022-09-23T23:44:23.837Z,8.02
2022-09-23T23:46:50.978Z,8.09
2022-09-23T23:49:17.745Z,8.17
2022-09-23T23:51:44.829Z,8.13
2022-09-23T23:54:12.154Z,8.09
2022-09-23T23:56:38.830Z,8.18
2022-09-23T23:59:05.623Z,8.14
